Observation data for Clarendon on 07/11/2018      Previous  Date       Current Mesonet Observations  Soil Data  Daily Summary Page  Observations in Plain Language
KCES 110505Z 18009KT 24/17 A3012 RMK A01 T02420165  RH  063%=      5-min Rain = 0
KCES 110510Z 17009KT 24/16 A3012 RMK A01 T02420164  RH  063%=      5-min Rain = 0
KCES 110515Z 17008KT 24/16 A3012 RMK A01 T02410164  RH  064%=      5-min Rain = 0
KCES 110520Z 17008KT 24/16 A3012 RMK A01 T02390164  RH  065%=      5-min Rain = 0
KCES 110525Z 16009KT 24/17 A3013 RMK A01 T02370165  RH  065%=      5-min Rain = 0
KCES 110530Z 15009KT 24/17 A3013 RMK A01 T02360165  RH  066%=      5-min Rain = 0
KCES 110535Z 15009KT 24/17 A3013 RMK A01 T02360166  RH  066%=      5-min Rain = 0
KCES 110540Z 16008KT 24/17 A3013 RMK A01 T02350167  RH  067%=      5-min Rain = 0
KCES 110545Z 15009KT 24/17 A3013 RMK A01 T02350168  RH  067%=      5-min Rain = 0
KCES 110550Z 15009KT 24/17 A3013 RMK A01 T02350168  RH  068%=      5-min Rain = 0
KCES 110555Z 15009KT 24/17 A3013 RMK A01 T02350169  RH  068%=      5-min Rain = 0
KCES 110600Z 15009KT 24/17 A3013 RMK A01 T02350170  RH  068%=      5-min Rain = 0
KCES 110605Z 15009KT 24/17 A3013 RMK A01 T02350171  RH  069%=      5-min Rain = 0
KCES 110610Z 15009KT 23/17 A3013 RMK A01 T02340172  RH  069%=      5-min Rain = 0
KCES 110615Z 15009KT 24/17 A3013 RMK A01 T02350172  RH  070%=      5-min Rain = 0
KCES 110620Z 14008KT 23/17 A3013 RMK A01 T02340173  RH  070%=      5-min Rain = 0
KCES 110625Z 15008KT 23/17 A3013 RMK A01 T02330174  RH  071%=      5-min Rain = 0
KCES 110630Z 14007KT 23/17 A3013 RMK A01 T02320174  RH  072%=      5-min Rain = 0
KCES 110635Z 15006KT 23/18 A3013 RMK A01 T02310175  RH  072%=      5-min Rain = 0
KCES 110640Z 14006KT 23/18 A3013 RMK A01 T02300175  RH  073%=      5-min Rain = 0
KCES 110645Z 13005KT 23/18 A3013 RMK A01 T02280175  RH  074%=      5-min Rain = 0
KCES 110650Z 11005KT 23/18 A3013 RMK A01 T02260175  RH  075%=      5-min Rain = 0
KCES 110655Z 10004KT 23/18 A3013 RMK A01 T02250176  RH  076%=      5-min Rain = 0
KCES 110700Z 09003KT 22/18 A3013 RMK A01 T02230175  RH  076%=      5-min Rain = 0
KCES 110705Z 06002KT 22/17 A3013 RMK A01 T02200174  RH  077%=      5-min Rain = 0
KCES 110710Z 34002KT 22/17 A3013 RMK A01 T02180172  RH  077%=      5-min Rain = 0
KCES 110715Z 35002KT 21/17 A3013 RMK A01 T02140169  RH  078%=      5-min Rain = 0
KCES 110720Z 01001KT 21/17 A3013 RMK A01 T02110169  RH  079%=      5-min Rain = 0
KCES 110725Z 04001KT 21/17 A3013 RMK A01 T02110172  RH  080%=      5-min Rain = 0
KCES 110730Z 04000KT 21/17 A3013 RMK A01 T02140174  RH  080%=      5-min Rain = 0
KCES 110735Z 04000KT 21/17 A3013 RMK A01 T02140172  RH  079%=      5-min Rain = 0
KCES 110740Z 13000KT 21/17 A3013 RMK A01 T02120172  RH  079%=      5-min Rain = 0
KCES 110745Z 17000KT 21/17 A3013 RMK A01 T02110171  RH  079%=      5-min Rain = 0
KCES 110750Z 12001KT 21/17 A3013 RMK A01 T02070166  RH  079%=      5-min Rain = 0
KCES 110755Z 13001KT 21/17 A3013 RMK A01 T02050166  RH  080%=      5-min Rain = 0
KCES 110800Z 15001KT 20/17 A3013 RMK A01 T02020166  RH  082%=      5-min Rain = 0
KCES 110805Z 14003KT 20/17 A3013 RMK A01 T02030171  RH  084%=      5-min Rain = 0
KCES 110810Z 15003KT 21/18 A3013 RMK A01 T02070175  RH  084%=      5-min Rain = 0
KCES 110815Z 16003KT 21/18 A3013 RMK A01 T02080175  RH  084%=      5-min Rain = 0
KCES 110820Z 17002KT 21/18 A3013 RMK A01 T02080175  RH  083%=      5-min Rain = 0
KCES 110825Z 17002KT 21/18 A3012 RMK A01 T02090176  RH  084%=      5-min Rain = 0
KCES 110830Z 17001KT 21/18 A3012 RMK A01 T02090176  RH  083%=      5-min Rain = 0
KCES 110835Z 05000KT 21/17 A3012 RMK A01 T02060171  RH  082%=      5-min Rain = 0
KCES 110840Z 02000KT 20/17 A3012 RMK A01 T02030170  RH  083%=      5-min Rain = 0
KCES 110845Z 21000KT 20/17 A3012 RMK A01 T02020170  RH  084%=      5-min Rain = 0
KCES 110850Z 21002KT 20/17 A3011 RMK A01 T02000170  RH  085%=      5-min Rain = 0
KCES 110855Z 19005KT 20/17 A3011 RMK A01 T02010172  RH  086%=      5-min Rain = 0
KCES 110900Z 19006KT 21/18 A3011 RMK A01 T02060177  RH  086%=      5-min Rain = 0
KCES 110905Z 18007KT 21/18 A3011 RMK A01 T02100179  RH  084%=      5-min Rain = 0
KCES 110910Z 18007KT 21/18 A3011 RMK A01 T02140179  RH  082%=      5-min Rain = 0
KCES 110915Z 18007KT 22/18 A3011 RMK A01 T02160179  RH  081%=      5-min Rain = 0
KCES 110920Z 18008KT 22/18 A3011 RMK A01 T02170179  RH  081%=      5-min Rain = 0
KCES 110925Z 18008KT 22/18 A3011 RMK A01 T02170179  RH  081%=      5-min Rain = 0
KCES 110930Z 18008KT 22/18 A3011 RMK A01 T02170179  RH  081%=      5-min Rain = 0
KCES 110935Z 18008KT 22/18 A3011 RMK A01 T02170179  RH  081%=      5-min Rain = 0
KCES 110940Z 19007KT 22/18 A3011 RMK A01 T02170179  RH  081%=      5-min Rain = 0
KCES 110945Z 20006KT 22/18 A3011 RMK A01 T02180179  RH  081%=      5-min Rain = 0
KCES 110950Z 19006KT 22/18 A3011 RMK A01 T02180179  RH  080%=      5-min Rain = 0
KCES 110955Z 19006KT 22/18 A3011 RMK A01 T02180179  RH  081%=      5-min Rain = 0
KCES 111000Z 19006KT 22/18 A3011 RMK A01 T02180179  RH  081%=      5-min Rain = 0
KCES 111005Z 19006KT 22/18 A3011 RMK A01 T02180180  RH  081%=      5-min Rain = 0
KCES 111010Z 19006KT 22/18 A3011 RMK A01 T02190180  RH  080%=      5-min Rain = 0
KCES 111015Z 19006KT 22/18 A3011 RMK A01 T02200180  RH  080%=      5-min Rain = 0
KCES 111020Z 19006KT 22/18 A3011 RMK A01 T02210180  RH  079%=      5-min Rain = 0
KCES 111025Z 19006KT 22/18 A301 RMK A01 T02220180  RH  079%=      5-min Rain = 0
KCES 111030Z 19006KT 22/18 A301 RMK A01 T02230180  RH  079%=      5-min Rain = 0
KCES 111035Z 18006KT 22/18 A301 RMK A01 T02230180  RH  079%=      5-min Rain = 0
KCES 111040Z 19006KT 22/18 A301 RMK A01 T02230180  RH  079%=      5-min Rain = 0
KCES 111045Z 19006KT 22/18 A301 RMK A01 T02220180  RH  079%=      5-min Rain = 0
KCES 111050Z 19006KT 22/18 A301 RMK A01 T02220180  RH  079%=      5-min Rain = 0
KCES 111055Z 19005KT 22/18 A301 RMK A01 T02220180  RH  079%=      5-min Rain = 0
KCES 111100Z 19005KT 22/18 A301 RMK A01 T02210180  RH  079%=      5-min Rain = 0
KCES 111105Z 20005KT 22/18 A301 RMK A01 T02200180  RH  080%=      5-min Rain = 0
KCES 111110Z 20005KT 22/18 A301 RMK A01 T02180180  RH  081%=      5-min Rain = 0
KCES 111115Z 20004KT 22/18 A301 RMK A01 T02160179  RH  081%=      5-min Rain = 0
KCES 111120Z 12001KT 22/18 A301 RMK A01 T02150178  RH  081%=      5-min Rain = 0
KCES 111125Z 35003KT 21/18 A3011 RMK A01 T02120176  RH  082%=      5-min Rain = 0
KCES 111130Z 33002KT 21/17 A3011 RMK A01 T02080174  RH  083%=      5-min Rain = 0
KCES 111135Z 23001KT 21/18 A3011 RMK A01 T02080176  RH  084%=      5-min Rain = 0
KCES 111140Z 25001KT 21/18 A3011 RMK A01 T02100176  RH  083%=      5-min Rain = 0
KCES 111145Z 23002KT 21/18 A3011 RMK A01 T02100175  RH  083%=      5-min Rain = 0
KCES 111150Z 22002KT 21/18 A3011 RMK A01 T02080175  RH  083%=      5-min Rain = 0
KCES 111155Z 20002KT 21/18 A3011 RMK A01 T02070175  RH  084%=      5-min Rain = 0
KCES 111200Z 19002KT 21/18 A3011 RMK A01 T02070175  RH  084%=      5-min Rain = 0
KCES 111205Z 18001KT 21/18 A3011 RMK A01 T02080176  RH  084%=      5-min Rain = 0
KCES 111210Z 12001KT 21/18 A3012 RMK A01 T02090177  RH  084%=      5-min Rain = 0
KCES 111215Z 04003KT 21/18 A3012 RMK A01 T02110178  RH  083%=      5-min Rain = 0
KCES 111220Z 05003KT 21/18 A3012 RMK A01 T02120179  RH  083%=      5-min Rain = 0
KCES 111225Z 05002KT 22/18 A3012 RMK A01 T02150180  RH  083%=      5-min Rain = 0
KCES 111230Z 04001KT 22/18 A3012 RMK A01 T02160181  RH  082%=      5-min Rain = 0
KCES 111235Z 04001KT 22/18 A3012 RMK A01 T02180181  RH  082%=      5-min Rain = 0
KCES 111240Z 04000KT 22/18 A3012 RMK A01 T02190182  RH  081%=      5-min Rain = 0
KCES 111245Z 14000KT 22/18 A3013 RMK A01 T02210183  RH  081%=      5-min Rain = 0
KCES 111250Z 14000KT 22/18 A3013 RMK A01 T02220183  RH  081%=      5-min Rain = 0
KCES 111255Z 20000KT 22/18 A3013 RMK A01 T02220183  RH  080%=      5-min Rain = 0
KCES 111300Z 19001KT 22/18 A3013 RMK A01 T02230183  RH  080%=      5-min Rain = 0
KCES 111305Z 18002KT 22/18 A3013 RMK A01 T02240184  RH  080%=      5-min Rain = 0
KCES 111310Z 19003KT 23/19 A3013 RMK A01 T02250185  RH  080%=      5-min Rain = 0
KCES 111315Z 21003KT 23/18 A3013 RMK A01 T02270184  RH  079%=      5-min Rain = 0
KCES 111320Z 22003KT 23/18 A3013 RMK A01 T02310183  RH  077%=      5-min Rain = 0
KCES 111325Z 22005KT 24/18 A3013 RMK A01 T02390176  RH  069%=      5-min Rain = 0
KCES 111330Z 22005KT 25/17 A3013 RMK A01 T02470173  RH  065%=      5-min Rain = 0
KCES 111335Z 21005KT 25/17 A3013 RMK A01 T02510173  RH  064%=      5-min Rain = 0
KCES 111340Z 21006KT 25/17 A3013 RMK A01 T02530173  RH  063%=      5-min Rain = 0
KCES 111345Z 21006KT 25/17 A3013 RMK A01 T02540171  RH  062%=      5-min Rain = 0
KCES 111350Z 22007KT 26/17 A3013 RMK A01 T02550172  RH  062%=      5-min Rain = 0
KCES 111355Z 21006KT 26/17 A3013 RMK A01 T02580173  RH  061%=      5-min Rain = 0
KCES 111400Z 21007KT 26/17 A3013 RMK A01 T02620173  RH  060%=      5-min Rain = 0
KCES 111405Z 20007KT 26/17 A3013 RMK A01 T02640174  RH  059%=      5-min Rain = 0
KCES 111410Z 20007KT 27/17 A3013 RMK A01 T02660173  RH  058%=      5-min Rain = 0
KCES 111415Z 22007KT 27/17 A3014 RMK A01 T02680173  RH  057%=      5-min Rain = 0
KCES 111420Z 20007KT 27/17 A3014 RMK A01 T02710173  RH  057%=      5-min Rain = 0
KCES 111425Z 20007KT 28/17 A3014 RMK A01 T02750173  RH  055%=      5-min Rain = 0
KCES 111430Z 20008KT 28/17 A3014 RMK A01 T02800172  RH  053%=      5-min Rain = 0
KCES 111435Z 20008KT 28/17 A3014 RMK A01 T02810171  RH  052%=      5-min Rain = 0
KCES 111440Z 20009G14KT 28/17 A3014 RMK A01 T02840168  RH  051%=      5-min Rain = 0
KCES 111445Z 23009G14KT 29/16 A3014 RMK A01 T02890161  RH  047%=      5-min Rain = 0
KCES 111450Z 20011G17KT 29/16 A3014 RMK A01 T02900156  RH  045%=      5-min Rain = 0
KCES 111455Z 21010KT 29/15 A3014 RMK A01 T02880147  RH  043%=      5-min Rain = 0
KCES 111500Z 21010KT 29/15 A3014 RMK A01 T02920150  RH  043%=      5-min Rain = 0
KCES 111505Z 20011KT 29/15 A3014 RMK A01 T02920151  RH  043%=      5-min Rain = 0
KCES 111510Z 20012KT 29/15 A3014 RMK A01 T02870149  RH  044%=      5-min Rain = 0
KCES 111515Z 21011KT 29/15 A3014 RMK A01 T02890150  RH  044%=      5-min Rain = 0
KCES 111520Z 22012G17KT 29/15 A3013 RMK A01 T02900147  RH  043%=      5-min Rain = 0
KCES 111525Z 21011KT 29/15 A3013 RMK A01 T02850148  RH  044%=      5-min Rain = 0
KCES 111530Z 20011G16KT 28/15 A3013 RMK A01 T02840150  RH  045%=      5-min Rain = 0
KCES 111535Z 21010KT 29/15 A3013 RMK A01 T02890153  RH  045%=      5-min Rain = 0
KCES 111540Z 19010KT 30/16 A3013 RMK A01 T02950156  RH  044%=      5-min Rain = 0
KCES 111545Z 20010G16KT 30/15 A3013 RMK A01 T02990154  RH  042%=      5-min Rain = 0
KCES 111550Z 21011G16KT 30/16 A3013 RMK A01 T03010156  RH  042%=      5-min Rain = 0
KCES 111555Z 22011KT 30/15 A3013 RMK A01 T03010151  RH  041%=      5-min Rain = 0
KCES 111600Z 21012KT 30/15 A3013 RMK A01 T03020153  RH  041%=      5-min Rain = 0
KCES 111605Z 22013G18KT 30/15 A3013 RMK A01 T03030153  RH  041%=      5-min Rain = 0
KCES 111610Z 22011G16KT 30/16 A3013 RMK A01 T03040155  RH  041%=      5-min Rain = 0
KCES 111615Z 21012G18KT 30/15 A3013 RMK A01 T03040153  RH  041%=      5-min Rain = 0
KCES 111620Z 22011G16KT 31/16 A3013 RMK A01 T03050158  RH  042%=      5-min Rain = 0
KCES 111625Z 22012G17KT 31/15 A3013 RMK A01 T03080154  RH  040%=      5-min Rain = 0
KCES 111630Z 22011G16KT 31/16 A3013 RMK A01 T03120155  RH  040%=      5-min Rain = 0
KCES 111635Z 20011G16KT 31/15 A3013 RMK A01 T03120152  RH  039%=      5-min Rain = 0
KCES 111640Z 21011KT 30/15 A3013 RMK A01 T03040150  RH  040%=      5-min Rain = 0
KCES 111645Z 21010G15KT 31/15 A3013 RMK A01 T03050152  RH  040%=      5-min Rain = 0
KCES 111650Z 21010G17KT 30/15 A3012 RMK A01 T03040151  RH  040%=      5-min Rain = 0
KCES 111655Z 22008KT 31/15 A3012 RMK A01 T03070150  RH  039%=      5-min Rain = 0
KCES 111700Z 18007KT 31/14 A3012 RMK A01 T03120144  RH  037%=      5-min Rain = 0
KCES 111705Z 18010G17KT 32/14 A3012 RMK A01 T03190140  RH  035%=      5-min Rain = 0
KCES 111710Z 19010G17KT 32/14 A3012 RMK A01 T03190141  RH  035%=      5-min Rain = 0
KCES 111715Z 18013KT 32/13 A3012 RMK A01 T03190126  RH  032%=      5-min Rain = 0
KCES 111720Z 17011KT 31/14 A3013 RMK A01 T03110136  RH  035%=      5-min Rain = 0
KCES 111725Z 18006KT 30/15 A3013 RMK A01 T03040145  RH  039%=      5-min Rain = 0
KCES 111730Z 20005G11KT 31/14 A3012 RMK A01 T03060144  RH  038%=      5-min Rain = 0
KCES 111735Z 22005G11KT 31/14 A3012 RMK A01 T03090142  RH  037%=      5-min Rain = 0
KCES 111740Z 20008G13KT 31/14 A3011 RMK A01 T03140136  RH  035%=      5-min Rain = 0
KCES 111745Z 21010KT 32/14 A3011 RMK A01 T03160142  RH  036%=      5-min Rain = 0
KCES 111750Z 18009KT 32/13 A3012 RMK A01 T03180132  RH  033%=      5-min Rain = 0
KCES 111755Z 19010G16KT 32/13 A3011 RMK A01 T03220132  RH  032%=      5-min Rain = 0
KCES 111800Z 16011G16KT 32/13 A3011 RMK A01 T03230134  RH  032%=      5-min Rain = 0
KCES 111805Z 17012KT 33/13 A3011 RMK A01 T03270134  RH  032%=      5-min Rain = 0
KCES 111810Z 17012KT 33/14 A3011 RMK A01 T03290135  RH  031%=      5-min Rain = 0
KCES 111815Z 18010G17KT 33/14 A301 RMK A01 T03310135  RH  031%=      5-min Rain = 0
KCES 111820Z 19010G16KT 33/13 A301 RMK A01 T03320131  RH  030%=      5-min Rain = 0
KCES 111825Z 16009KT 33/13 A301 RMK A01 T03330131  RH  030%=      5-min Rain = 0
KCES 111830Z 18007G14KT 33/13 A301 RMK A01 T03300127  RH  030%=      5-min Rain = 0
KCES 111835Z 19009G16KT 33/13 A301 RMK A01 T03280127  RH  030%=      5-min Rain = 0
KCES 111840Z 17011G21KT 33/12 A3009 RMK A01 T03340124  RH  029%=      5-min Rain = 0
KCES 111845Z 15013G22KT 34/12 A3009 RMK A01 T03400123  RH  027%=      5-min Rain = 0
KCES 111850Z 17016G21KT 35/12 A3009 RMK A01 T03460118  RH  025%=      5-min Rain = 0
KCES 111855Z 20016G23KT 34/12 A3009 RMK A01 T03430115  RH  025%=      5-min Rain = 0
KCES 111900Z 18014KT 34/12 A3009 RMK A01 T03350117  RH  027%=      5-min Rain = 0
KCES 111905Z 19010KT 33/12 A3008 RMK A01 T03290120  RH  028%=      5-min Rain = 0
KCES 111910Z 16015G21KT 33/12 A3008 RMK A01 T03270123  RH  029%=      5-min Rain = 0
KCES 111915Z 17014KT 33/12 A3008 RMK A01 T03250121  RH  029%=      5-min Rain = 0
KCES 111920Z 17010G20KT 33/12 A3007 RMK A01 T03310121  RH  028%=      5-min Rain = 0
KCES 111925Z 17017G24KT 34/13 A3007 RMK A01 T03350126  RH  029%=      5-min Rain = 0
KCES 111930Z 17015G21KT 34/13 A3007 RMK A01 T03400126  RH  028%=      5-min Rain = 0
KCES 111935Z 17013G19KT 34/12 A3007 RMK A01 T03350123  RH  028%=      5-min Rain = 0
KCES 111940Z 17011G17KT 34/12 A3007 RMK A01 T03420120  RH  027%=      5-min Rain = 0
KCES 111945Z 17016G26KT 35/12 A3006 RMK A01 T03490119  RH  025%=      5-min Rain = 0
KCES 111950Z 16015G20KT 35/12 A3006 RMK A01 T03520115  RH  024%=      5-min Rain = 0
KCES 111955Z 16015G22KT 34/11 A3006 RMK A01 T03440113  RH  025%=      5-min Rain = 0
KCES 112000Z 15016G24KT 34/12 A3006 RMK A01 T03440115  RH  025%=      5-min Rain = 0
KCES 112005Z 16013G23KT 34/12 A3006 RMK A01 T03420115  RH  026%=      5-min Rain = 0
KCES 112010Z 17015G24KT 34/12 A3006 RMK A01 T03420117  RH  026%=      5-min Rain = 0
KCES 112015Z 16016G23KT 35/12 A3006 RMK A01 T03480116  RH  025%=      5-min Rain = 0
KCES 112020Z 17016G22KT 34/11 A3006 RMK A01 T03380113  RH  026%=      5-min Rain = 0
KCES 112025Z 16014G22KT 34/12 A3005 RMK A01 T03400115  RH  026%=      5-min Rain = 0
KCES 112030Z 17018G25KT 35/11 A3005 RMK A01 T03480113  RH  025%=      5-min Rain = 0
KCES 112035Z 18017G25KT 35/12 A3005 RMK A01 T03500115  RH  024%=      5-min Rain = 0
KCES 112040Z 18015G22KT 35/11 A3005 RMK A01 T03480114  RH  025%=      5-min Rain = 0
KCES 112045Z 16013G21KT 35/11 A3005 RMK A01 T03470114  RH  025%=      5-min Rain = 0
KCES 112050Z 15014G20KT 34/11 A3004 RMK A01 T03430112  RH  025%=      5-min Rain = 0
KCES 112055Z 16016G24KT 34/11 A3004 RMK A01 T03390109  RH  025%=      5-min Rain = 0
KCES 112100Z 17014G19KT 34/11 A3004 RMK A01 T03370111  RH  026%=      5-min Rain = 0
KCES 112105Z 16013G18KT 34/11 A3004 RMK A01 T03360112  RH  026%=      5-min Rain = 0
KCES 112110Z 17015G21KT 35/12 A3004 RMK A01 T03450115  RH  025%=      5-min Rain = 0
KCES 112115Z 18014G20KT 34/12 A3004 RMK A01 T03370115  RH  026%=      5-min Rain = 0
KCES 112120Z 15015G21KT 34/12 A3004 RMK A01 T03400116  RH  026%=      5-min Rain = 0
KCES 112125Z 16013G23KT 34/12 A3003 RMK A01 T03440115  RH  025%=      5-min Rain = 0
KCES 112130Z 17016G24KT 35/12 A3003 RMK A01 T03500115  RH  025%=      5-min Rain = 0
KCES 112135Z 15013G19KT 35/12 A3003 RMK A01 T03500115  RH  025%=      5-min Rain = 0
KCES 112140Z 16015G21KT 35/12 A3003 RMK A01 T03530116  RH  024%=      5-min Rain = 0
KCES 112145Z 17016G22KT 35/11 A3002 RMK A01 T03480114  RH  025%=      5-min Rain = 0
KCES 112150Z 17013G20KT 34/12 A3002 RMK A01 T03370115  RH  026%=      5-min Rain = 0
KCES 112155Z 17012G18KT 35/12 A3002 RMK A01 T03470117  RH  025%=      5-min Rain = 0
KCES 112200Z 18018G25KT 35/12 A3002 RMK A01 T03540121  RH  025%=      5-min Rain = 0
KCES 112205Z 19012G20KT 35/12 A3001 RMK A01 T03500122  RH  026%=      5-min Rain = 0
KCES 112210Z 18016G25KT 35/12 A3001 RMK A01 T03480120  RH  026%=      5-min Rain = 0
KCES 112215Z 19013G18KT 35/12 A3001 RMK A01 T03480120  RH  026%=      5-min Rain = 0
KCES 112220Z 16015G20KT 35/12 A3001 RMK A01 T03510123  RH  026%=      5-min Rain = 0
KCES 112225Z 16013G18KT 34/12 A3001 RMK A01 T03410121  RH  027%=      5-min Rain = 0
KCES 112230Z 18015G21KT 34/12 A3001 RMK A01 T03410122  RH  027%=      5-min Rain = 0
KCES 112235Z 19014G21KT 35/12 A3001 RMK A01 T03480122  RH  026%=      5-min Rain = 0
KCES 112240Z 19015G21KT 35/12 A3001 RMK A01 T03500121  RH  026%=      5-min Rain = 0
KCES 112245Z 18017G22KT 35/12 A3001 RMK A01 T03500118  RH  025%=      5-min Rain = 0
KCES 112250Z 18013G20KT 34/12 A3001 RMK A01 T03420118  RH  026%=      5-min Rain = 0
KCES 112255Z 18013G19KT 35/12 A3001 RMK A01 T03470119  RH  026%=      5-min Rain = 0
KCES 112300Z 16014G21KT 34/12 A3001 RMK A01 T03420120  RH  026%=      5-min Rain = 0
KCES 112305Z 16016KT 34/12 A3001 RMK A01 T03430123  RH  027%=      5-min Rain = 0
KCES 112310Z 16014G21KT 35/12 A3001 RMK A01 T03450122  RH  026%=      5-min Rain = 0
KCES 112315Z 16016KT 35/12 A3001 RMK A01 T03460121  RH  026%=      5-min Rain = 0
KCES 112320Z 16013G20KT 35/12 A30 RMK A01 T03470122  RH  026%=      5-min Rain = 0
KCES 112325Z 17015G20KT 35/12 A30 RMK A01 T03490120  RH  026%=      5-min Rain = 0
KCES 112330Z 16014G24KT 35/12 A30 RMK A01 T03460120  RH  026%=      5-min Rain = 0
KCES 112335Z 16015G21KT 35/12 A30 RMK A01 T03490119  RH  025%=      5-min Rain = 0
KCES 112340Z 16017G22KT 35/12 A30 RMK A01 T03450117  RH  026%=      5-min Rain = 0
KCES 112345Z 16015G20KT 34/12 A30 RMK A01 T03440117  RH  026%=      5-min Rain = 0
KCES 112350Z 15014G20KT 34/12 A30 RMK A01 T03440117  RH  026%=      5-min Rain = 0
KCES 112355Z 15017KT 34/12 A3001 RMK A01 T03420115  RH  026%=      5-min Rain = 0
KCES 120000Z 16014G21KT 34/12 A3001 RMK A01 T03430117  RH  026%=      5-min Rain = 0
KCES 120005Z 15016G22KT 34/12 A30 RMK A01 T03410116  RH  026%=      5-min Rain = 0
KCES 120010Z 17014G19KT 34/12 A30 RMK A01 T03390116  RH  026%=      5-min Rain = 0
KCES 120015Z 16014KT 34/12 A3001 RMK A01 T03390116  RH  026%=      5-min Rain = 0
KCES 120020Z 16015G20KT 34/12 A3001 RMK A01 T03380116  RH  026%=      5-min Rain = 0
KCES 120025Z 16013KT 34/12 A3001 RMK A01 T03370116  RH  027%=      5-min Rain = 0
KCES 120030Z 15014KT 33/12 A3001 RMK A01 T03340116  RH  027%=      5-min Rain = 0
KCES 120035Z 16014KT 33/12 A3001 RMK A01 T03340115  RH  027%=      5-min Rain = 0
KCES 120040Z 15012KT 33/12 A3001 RMK A01 T03340116  RH  027%=      5-min Rain = 0
KCES 120045Z 16014KT 33/12 A3001 RMK A01 T03330115  RH  027%=      5-min Rain = 0
KCES 120050Z 16012G18KT 33/11 A3002 RMK A01 T03310114  RH  027%=      5-min Rain = 0
KCES 120055Z 16011KT 33/11 A3002 RMK A01 T03270114  RH  028%=      5-min Rain = 0
KCES 120100Z 15013KT 32/12 A3002 RMK A01 T03240116  RH  028%=      5-min Rain = 0
KCES 120105Z 15014KT 32/12 A3002 RMK A01 T03220118  RH  029%=      5-min Rain = 0
KCES 120110Z 15011G16KT 32/12 A3002 RMK A01 T03200119  RH  030%=      5-min Rain = 0
KCES 120115Z 15009KT 32/12 A3002 RMK A01 T03160120  RH  031%=      5-min Rain = 0
KCES 120120Z 15009KT 31/12 A3002 RMK A01 T03140120  RH  031%=      5-min Rain = 0
KCES 120125Z 15010KT 31/12 A3002 RMK A01 T03130120  RH  031%=      5-min Rain = 0
KCES 120130Z 15009KT 31/12 A3003 RMK A01 T03120120  RH  031%=      5-min Rain = 0
KCES 120135Z 15010KT 31/12 A3002 RMK A01 T03120121  RH  032%=      5-min Rain = 0
KCES 120140Z 15010KT 31/12 A3003 RMK A01 T03120121  RH  032%=      5-min Rain = 0
KCES 120145Z 15009KT 31/12 A3003 RMK A01 T03110121  RH  032%=      5-min Rain = 0
KCES 120150Z 15010KT 31/12 A3003 RMK A01 T03090121  RH  032%=      5-min Rain = 0
KCES 120155Z 15011KT 31/12 A3003 RMK A01 T03080121  RH  032%=      5-min Rain = 0
KCES 120200Z 14010KT 31/12 A3003 RMK A01 T03050121  RH  033%=      5-min Rain = 0
KCES 120205Z 14010KT 30/12 A3003 RMK A01 T03020121  RH  033%=      5-min Rain = 0
KCES 120210Z 14009KT 30/12 A3003 RMK A01 T02990122  RH  034%=      5-min Rain = 0
KCES 120215Z 13008KT 30/12 A3003 RMK A01 T02950124  RH  036%=      5-min Rain = 0
KCES 120220Z 14008KT 29/13 A3003 RMK A01 T02920125  RH  036%=      5-min Rain = 0
KCES 120225Z 13008KT 29/13 A3004 RMK A01 T02900127  RH  037%=      5-min Rain = 0
KCES 120230Z 14008KT 29/13 A3004 RMK A01 T02870128  RH  038%=      5-min Rain = 0
KCES 120235Z 14008KT 29/13 A3004 RMK A01 T02860129  RH  039%=      5-min Rain = 0
KCES 120240Z 14008KT 29/13 A3004 RMK A01 T02860130  RH  039%=      5-min Rain = 0
KCES 120245Z 14008KT 29/13 A3004 RMK A01 T02850130  RH  039%=      5-min Rain = 0
KCES 120250Z 14007KT 28/13 A3005 RMK A01 T02840131  RH  040%=      5-min Rain = 0
KCES 120255Z 13007KT 28/13 A3005 RMK A01 T02800132  RH  041%=      5-min Rain = 0
KCES 120300Z 13007KT 28/13 A3005 RMK A01 T02760134  RH  042%=      5-min Rain = 0
KCES 120305Z 13007KT 27/14 A3005 RMK A01 T02720135  RH  043%=      5-min Rain = 0
KCES 120310Z 14007KT 27/14 A3005 RMK A01 T02710135  RH  044%=      5-min Rain = 0
KCES 120315Z 13007KT 27/14 A3006 RMK A01 T02700136  RH  045%=      5-min Rain = 0
KCES 120320Z 13007KT 27/14 A3006 RMK A01 T02670137  RH  046%=      5-min Rain = 0
KCES 120325Z 13007KT 27/14 A3006 RMK A01 T02650137  RH  046%=      5-min Rain = 0
KCES 120330Z 14007KT 27/14 A3007 RMK A01 T02650138  RH  046%=      5-min Rain = 0
KCES 120335Z 14007KT 27/14 A3007 RMK A01 T02660137  RH  046%=      5-min Rain = 0
KCES 120340Z 14007KT 27/14 A3007 RMK A01 T02680137  RH  046%=      5-min Rain = 0
KCES 120345Z 14007KT 27/14 A3007 RMK A01 T02680137  RH  046%=      5-min Rain = 0
KCES 120350Z 14008KT 27/14 A3007 RMK A01 T02670137  RH  046%=      5-min Rain = 0
KCES 120355Z 14008KT 27/14 A3007 RMK A01 T02670137  RH  046%=      5-min Rain = 0
KCES 120400Z 14007KT 27/14 A3007 RMK A01 T02670137  RH  046%=      5-min Rain = 0
KCES 120405Z 14007KT 27/14 A3007 RMK A01 T02660137  RH  046%=      5-min Rain = 0
KCES 120410Z 15008KT 27/14 A3007 RMK A01 T02670136  RH  045%=      5-min Rain = 0
KCES 120415Z 15008KT 27/14 A3007 RMK A01 T02700135  RH  044%=      5-min Rain = 0
KCES 120420Z 15009KT 27/13 A3007 RMK A01 T02740133  RH  043%=      5-min Rain = 0
KCES 120425Z 15010KT 28/13 A3007 RMK A01 T02780132  RH  041%=      5-min Rain = 0
KCES 120430Z 15009KT 28/13 A3007 RMK A01 T02810131  RH  040%=      5-min Rain = 0
KCES 120435Z 14009KT 28/13 A3007 RMK A01 T02810131  RH  040%=      5-min Rain = 0
KCES 120440Z 14008KT 28/13 A3007 RMK A01 T02800131  RH  041%=      5-min Rain = 0
KCES 120445Z 14008KT 28/13 A3007 RMK A01 T02770132  RH  041%=      5-min Rain = 0
KCES 120450Z 15008KT 28/13 A3007 RMK A01 T02760132  RH  042%=      5-min Rain = 0
KCES 120455Z 15008KT 28/13 A3007 RMK A01 T02750132  RH  042%=      5-min Rain = 0
KCES 120500Z 16008KT 27/13 A3007 RMK A01 T02740133  RH  043%=      5-min Rain = 0

Page generated in 0.0357 seconds.